TimeCST,TemperatureF,Dew PointF,Humidity,Sea Level PressureIn,VisibilityMPH,Wind Direction,Wind SpeedMPH,Gust SpeedMPH,PrecipitationIn,Events,Conditions,WindDirDegrees,DateUTC
12:15 AM,62.6,60.8,94,29.91,1.5,NW,8.1,-,0.17,Rain,Heavy Rain,320,2013-02-22 06:15:00
12:35 AM,60.8,59.0,94,29.93,7.0,NW,4.6,-,0.30,Rain,Light Rain,310,2013-02-22 06:35:00
12:55 AM,59.0,57.2,94,29.92,10.0,NNW,8.1,-,0.31,,Mostly Cloudy,330,2013-02-22 06:55:00
1:15 AM,59.0,57.2,94,29.93,10.0,NNW,5.8,-,N/A,,Mostly Cloudy,340,2013-02-22 07:15:00
1:35 AM,59.0,57.2,94,29.93,10.0,North,5.8,-,N/A,,Mostly Cloudy,350,2013-02-22 07:35:00
1:55 AM,59.0,57.2,94,29.93,10.0,North,5.8,-,N/A,,Mostly Cloudy,360,2013-02-22 07:55:00
2:15 AM,57.2,57.2,100,29.93,10.0,North,5.8,-,N/A,,Mostly Cloudy,360,2013-02-22 08:15:00
2:35 AM,57.2,55.4,94,29.93,10.0,North,4.6,-,N/A,,Mostly Cloudy,10,2013-02-22 08:35:00
2:55 AM,57.2,55.4,94,29.94,10.0,North,4.6,-,N/A,,Mostly Cloudy,10,2013-02-22 08:55:00
3:15 AM,57.2,53.6,88,29.93,10.0,NNE,4.6,-,N/A,,Mostly Cloudy,20,2013-02-22 09:15:00
3:35 AM,55.4,53.6,94,29.94,10.0,North,3.5,-,N/A,,Mostly Cloudy,10,2013-02-22 09:35:00
3:55 AM,53.6,51.8,94,29.93,10.0,Calm,Calm,-,N/A,,Scattered Clouds,0,2013-02-22 09:55:00
4:15 AM,55.4,51.8,88,29.92,10.0,North,4.6,-,N/A,,Mostly Cloudy,10,2013-02-22 10:15:00
4:35 AM,55.4,51.8,88,29.94,10.0,Calm,Calm,-,N/A,,Mostly Cloudy,0,2013-02-22 10:35:00
4:55 AM,53.6,51.8,94,29.94,10.0,North,3.5,-,N/A,,Overcast,10,2013-02-22 10:55:00
5:15 AM,55.4,51.8,88,29.96,10.0,Calm,Calm,-,N/A,,Overcast,0,2013-02-22 11:15:00
5:35 AM,53.6,51.8,94,29.96,10.0,Calm,Calm,-,N/A,,Overcast,0,2013-02-22 11:35:00
5:55 AM,53.6,51.8,94,29.96,10.0,Calm,Calm,-,N/A,,Mostly Cloudy,0,2013-02-22 11:55:00
6:15 AM,53.6,51.8,94,29.97,10.0,Calm,Calm,-,N/A,,Scattered Clouds,0,2013-02-22 12:15:00
6:35 AM,53.6,50.0,88,29.98,10.0,Calm,Calm,-,N/A,,Mostly Cloudy,0,2013-02-22 12:35:00
6:55 AM,53.6,51.8,94,29.99,10.0,Calm,Calm,-,N/A,,Mostly Cloudy,0,2013-02-22 12:55:00
7:15 AM,53.6,51.8,94,30.00,10.0,North,3.5,-,N/A,,Overcast,10,2013-02-22 13:15:00
7:35 AM,53.6,51.8,94,30.01,10.0,Calm,Calm,-,N/A,,Overcast,0,2013-02-22 13:35:00
7:55 AM,55.4,51.8,88,30.01,10.0,NNE,4.6,-,N/A,,Mostly Cloudy,20,2013-02-22 13:55:00
8:15 AM,55.4,51.8,88,30.02,10.0,NNE,3.5,-,N/A,,Mostly Cloudy,30,2013-02-22 14:15:00
8:35 AM,57.2,51.8,82,30.03,9.0,NE,3.5,-,N/A,,Mostly Cloudy,40,2013-02-22 14:35:00
8:55 AM,57.2,51.8,82,30.04,9.0,ENE,3.5,-,N/A,,Overcast,60,2013-02-22 14:55:00
9:15 AM,57.2,51.8,82,30.04,8.0,Calm,Calm,-,N/A,,Overcast,0,2013-02-22 15:15:00
9:35 AM,60.8,51.8,72,30.02,8.0,North,6.9,-,N/A,,Scattered Clouds,10,2013-02-22 15:35:00
9:55 AM,62.6,48.2,59,30.02,8.0,NNE,5.8,-,N/A,,Scattered Clouds,30,2013-02-22 15:55:00
10:15 AM,64.4,48.2,56,30.02,10.0,NE,4.6,-,N/A,,Scattered Clouds,40,2013-02-22 16:15:00
10:35 AM,64.4,46.4,52,30.01,10.0,NE,4.6,-,N/A,,Partly Cloudy,50,2013-02-22 16:35:00
10:55 AM,64.4,46.4,52,30.01,10.0,NNE,5.8,-,N/A,,Partly Cloudy,30,2013-02-22 16:55:00
11:15 AM,64.4,44.6,49,30.01,10.0,NNE,4.6,-,N/A,,Scattered Clouds,20,2013-02-22 17:15:00
11:35 AM,64.4,44.6,49,30.00,10.0,NE,5.8,-,N/A,,Scattered Clouds,40,2013-02-22 17:35:00
11:55 AM,64.4,44.6,49,30.00,10.0,NE,3.5,-,N/A,,Scattered Clouds,40,2013-02-22 17:55:00
12:15 PM,64.4,44.6,49,29.98,10.0,NE,4.6,-,N/A,,Scattered Clouds,50,2013-02-22 18:15:00
12:35 PM,64.4,44.6,49,29.98,10.0,Calm,Calm,-,N/A,,Partly Cloudy,0,2013-02-22 18:35:00
12:55 PM,64.4,44.6,49,29.98,10.0,Calm,Calm,-,N/A,,Mostly Cloudy,0,2013-02-22 18:55:00
1:15 PM,64.4,46.4,52,29.98,10.0,Calm,Calm,-,N/A,,Overcast,0,2013-02-22 19:15:00
1:35 PM,64.4,46.4,52,29.97,10.0,NNE,4.6,-,N/A,,Overcast,30,2013-02-22 19:35:00
1:55 PM,64.4,46.4,52,29.98,10.0,WNW,6.9,-,N/A,,Overcast,300,2013-02-22 19:55:00
2:15 PM,59.0,48.2,67,29.97,9.0,NNW,8.1,-,N/A,,Light Drizzle,340,2013-02-22 20:15:00
2:35 PM,57.2,51.8,82,29.99,10.0,NW,8.1,-,N/A,,Overcast,310,2013-02-22 20:35:00
2:55 PM,57.2,53.6,88,29.96,4.0,North,5.8,-,0.03,,Overcast,10,2013-02-22 20:55:00
3:15 PM,55.4,51.8,88,29.96,10.0,North,8.1,-,N/A,,Overcast,360,2013-02-22 21:15:00
3:35 PM,55.4,51.8,88,29.95,10.0,Calm,Calm,-,N/A,Rain,Light Rain,0,2013-02-22 21:35:00
3:55 PM,55.4,51.8,88,29.96,10.0,North,5.8,-,N/A,,Overcast,10,2013-02-22 21:55:00
4:15 PM,55.4,51.8,88,29.95,10.0,NNE,4.6,-,N/A,,Overcast,20,2013-02-22 22:15:00
4:35 PM,55.4,51.8,88,29.96,10.0,North,5.8,-,N/A,,Overcast,350,2013-02-22 22:35:00
4:55 PM,55.4,51.8,88,29.96,10.0,North,6.9,-,N/A,,Overcast,10,2013-02-22 22:55:00
5:15 PM,55.4,50.0,82,29.96,10.0,North,6.9,-,N/A,,Overcast,350,2013-02-22 23:15:00
5:35 PM,55.4,50.0,82,29.96,10.0,NNE,6.9,-,N/A,,Overcast,30,2013-02-22 23:35:00
5:55 PM,55.4,50.0,82,29.97,10.0,North,5.8,-,N/A,,Overcast,360,2013-02-22 23:55:00
6:15 PM,53.6,50.0,88,29.97,10.0,North,8.1,-,N/A,,Overcast,10,2013-02-23 00:15:00
6:35 PM,53.6,48.2,82,29.97,10.0,North,8.1,-,N/A,,Overcast,350,2013-02-23 00:35:00
6:55 PM,53.6,50.0,88,29.96,9.0,NNE,6.9,-,N/A,,Overcast,20,2013-02-23 00:55:00
7:15 PM,53.6,50.0,88,29.96,10.0,North,6.9,-,N/A,,Overcast,10,2013-02-23 01:15:00
7:35 PM,53.6,51.8,94,29.98,1.2,NNW,6.9,-,0.10,Rain-Thunderstorm,Light Rain,340,2013-02-23 01:35:00
7:55 PM,53.6,51.8,94,29.99,10.0,Calm,Calm,-,0.11,,Overcast,0,2013-02-23 01:55:00
8:15 PM,53.6,51.8,94,29.98,10.0,North,5.8,-,N/A,,Overcast,350,2013-02-23 02:15:00
8:35 PM,53.6,51.8,94,29.98,10.0,NNE,5.8,-,N/A,,Overcast,20,2013-02-23 02:35:00
8:55 PM,53.6,51.8,94,29.98,10.0,NNW,5.8,-,N/A,,Overcast,340,2013-02-23 02:55:00
9:15 PM,53.6,51.8,94,29.98,10.0,NNE,3.5,-,N/A,,Light Drizzle,20,2013-02-23 03:15:00
9:35 PM,53.6,51.8,94,29.98,10.0,Calm,Calm,-,N/A,,Overcast,0,2013-02-23 03:35:00
9:55 PM,53.6,51.8,94,29.98,10.0,Calm,Calm,-,N/A,Thunderstorm,Overcast,0,2013-02-23 03:55:00
10:15 PM,53.6,53.6,100,29.99,10.0,Calm,Calm,-,N/A,,Overcast,0,2013-02-23 04:15:00
10:35 PM,53.6,53.6,100,29.98,10.0,NNE,3.5,-,N/A,,Overcast,20,2013-02-23 04:35:00
10:55 PM,53.6,53.6,100,29.97,10.0,North,4.6,-,N/A,,Overcast,10,2013-02-23 04:55:00
11:15 PM,53.6,53.6,100,29.97,9.0,NNE,3.5,-,N/A,,Overcast,20,2013-02-23 05:15:00
11:35 PM,53.6,53.6,100,29.97,9.0,Calm,Calm,-,N/A,,Overcast,0,2013-02-23 05:35:00
11:55 PM,53.6,53.6,100,29.98,9.0,NNW,6.9,-,N/A,,Overcast,340,2013-02-23 05:55:00